FLD VABB-VOMM
Flight info
| Callsign | FLD |
|---|---|
| Flight time | N/A |
| Altitude | 37000 |
| Route | VEVAK2A EPKOS Q9 OPAMO OPAMO2E |
| Aircraft | B738/M-SDE2E3FGHIRWXY/LB1 |
Departure
| Time | N/A |
|---|---|
| Airport | Chhatrapati Shivaji Maharaj International Airport (VABB) |
Arrival
| Time | 2026-04-24 12:21 |
|---|---|
| Airport | Chennai International Airport (VOMM) |
| Time | Latitude | Longitude | Altitude | Speed | Heading |
|---|---|---|---|---|---|
| 2026-04-24 10:54 | 17.93491 | 73.12712 | 24904 ft | 448 kts | 138° |
| 2026-04-24 10:54 | 17.91183 | 73.14921 | 25209 ft | 451 kts | 138° |
| 2026-04-24 10:54 | 17.88852 | 73.17142 | 25534 ft | 453 kts | 139° |
| 2026-04-24 10:54 | 17.86513 | 73.19368 | 25841 ft | 455 kts | 139° |
| 2026-04-24 10:55 | 17.82441 | 73.23242 | 26395 ft | 458 kts | 139° |
| 2026-04-24 10:55 | 17.80103 | 73.25468 | 26668 ft | 461 kts | 139° |
| 2026-04-24 10:55 | 17.77717 | 73.27739 | 26948 ft | 464 kts | 140° |
| 2026-04-24 10:56 | 17.75323 | 73.30017 | 27237 ft | 466 kts | 139° |
| 2026-04-24 10:56 | 17.72920 | 73.32302 | 27548 ft | 467 kts | 140° |
| 2026-04-24 10:56 | 17.70509 | 73.34596 | 27812 ft | 469 kts | 141° |
| 2026-04-24 10:56 | 17.68079 | 73.36905 | 28024 ft | 472 kts | 141° |
| 2026-04-24 10:57 | 17.65638 | 73.39224 | 28277 ft | 475 kts | 141° |
| 2026-04-24 10:57 | 17.63190 | 73.41549 | 28550 ft | 476 kts | 141° |
| 2026-04-24 10:57 | 17.60729 | 73.43886 | 28814 ft | 478 kts | 141° |
| 2026-04-24 10:57 | 17.58260 | 73.46231 | 29067 ft | 480 kts | 141° |
| 2026-04-24 10:58 | 17.55780 | 73.48583 | 29298 ft | 482 kts | 141° |
| 2026-04-24 10:58 | 17.53295 | 73.50941 | 29550 ft | 483 kts | 141° |
| 2026-04-24 10:58 | 17.50803 | 73.53305 | 29877 ft | 483 kts | 141° |
| 2026-04-24 10:58 | 17.48316 | 73.55663 | 30209 ft | 481 kts | 142° |
| 2026-04-24 10:59 | 17.45847 | 73.58004 | 30603 ft | 477 kts | 142° |
| 2026-04-24 10:59 | 17.43390 | 73.60332 | 31007 ft | 474 kts | 143° |
| 2026-04-24 10:59 | 17.40954 | 73.62640 | 31379 ft | 471 kts | 143° |
| 2026-04-24 10:59 | 17.38525 | 73.64940 | 31763 ft | 468 kts | 144° |
| 2026-04-24 11:00 | 17.36123 | 73.67214 | 32331 ft | 462 kts | 145° |
| 2026-04-24 11:00 | 17.33755 | 73.69457 | 32850 ft | 457 kts | 145° |
| 2026-04-24 11:00 | 17.31400 | 73.71679 | 33193 ft | 455 kts | 146° |
| 2026-04-24 11:00 | 17.29047 | 73.73898 | 33485 ft | 455 kts | 146° |
| 2026-04-24 11:01 | 17.26697 | 73.76116 | 33810 ft | 453 kts | 146° |
| 2026-04-24 11:01 | 17.24400 | 73.78288 | 34177 ft | 450 kts | 146° |
| 2026-04-24 11:01 | 17.22073 | 73.80485 | 34372 ft | 451 kts | 146° |
| 2026-04-24 11:01 | 17.19732 | 73.82691 | 34495 ft | 455 kts | 146° |
| 2026-04-24 11:02 | 17.17379 | 73.84908 | 34703 ft | 455 kts | 146° |
| 2026-04-24 11:02 | 17.15026 | 73.87123 | 34963 ft | 455 kts | 146° |
| 2026-04-24 11:02 | 17.12679 | 73.89336 | 35201 ft | 455 kts | 146° |
| 2026-04-24 11:02 | 17.10330 | 73.91551 | 35407 ft | 455 kts | 146° |
| 2026-04-24 11:03 | 17.07977 | 73.93770 | 35622 ft | 456 kts | 146° |
| 2026-04-24 11:03 | 17.05628 | 73.95984 | 35889 ft | 454 kts | 146° |
| 2026-04-24 11:03 | 17.03277 | 73.98198 | 36088 ft | 455 kts | 146° |
| 2026-04-24 11:03 | 17.00997 | 74.00343 | 36244 ft | 456 kts | 146° |
| 2026-04-24 11:04 | 16.98641 | 74.02558 | 36415 ft | 457 kts | 146° |
| 2026-04-24 11:04 | 16.96275 | 74.04784 | 36615 ft | 457 kts | 146° |
| 2026-04-24 11:04 | 16.93913 | 74.07006 | 36823 ft | 457 kts | 145° |
| 2026-04-24 11:05 | 16.89160 | 74.11471 | 36856 ft | 461 kts | 145° |
| 2026-04-24 11:05 | 16.84903 | 74.16490 | 36863 ft | 467 kts | 135° |
| 2026-04-24 11:06 | 16.80947 | 74.21919 | 36859 ft | 466 kts | 135° |
| 2026-04-24 11:06 | 16.77036 | 74.27227 | 36850 ft | 463 kts | 135° |
| 2026-04-24 11:07 | 16.71067 | 74.35119 | 36858 ft | 461 kts | 136° |
| 2026-04-24 11:07 | 16.67074 | 74.40361 | 36854 ft | 462 kts | 136° |
| 2026-04-24 11:08 | 16.63077 | 74.45611 | 36868 ft | 463 kts | 136° |
| 2026-04-24 11:08 | 16.59059 | 74.50888 | 36868 ft | 466 kts | 136° |
| 2026-04-24 11:09 | 16.55020 | 74.56192 | 36871 ft | 468 kts | 136° |
| 2026-04-24 11:09 | 16.50961 | 74.61519 | 36871 ft | 470 kts | 136° |
| 2026-04-24 11:10 | 16.46884 | 74.66864 | 36848 ft | 471 kts | 135° |
| 2026-04-24 11:10 | 16.42806 | 74.72211 | 36858 ft | 471 kts | 135° |
| 2026-04-24 11:11 | 16.38735 | 74.77550 | 36862 ft | 470 kts | 135° |
| 2026-04-24 11:11 | 16.34670 | 74.82878 | 36847 ft | 469 kts | 135° |
| 2026-04-24 11:12 | 16.30647 | 74.88146 | 36852 ft | 467 kts | 135° |
| 2026-04-24 11:12 | 16.26611 | 74.93425 | 36850 ft | 465 kts | 135° |
| 2026-04-24 11:13 | 16.22587 | 74.98686 | 36850 ft | 464 kts | 135° |
| 2026-04-24 11:13 | 16.18631 | 75.03852 | 36851 ft | 462 kts | 135° |
| 2026-04-24 11:14 | 16.14625 | 75.09081 | 36836 ft | 462 kts | 136° |
| 2026-04-24 11:14 | 16.10623 | 75.14300 | 36850 ft | 462 kts | 136° |
| 2026-04-24 11:15 | 16.06615 | 75.19523 | 36853 ft | 462 kts | 136° |
| 2026-04-24 11:15 | 16.02593 | 75.24760 | 36845 ft | 464 kts | 136° |
| 2026-04-24 11:16 | 15.98567 | 75.30000 | 36843 ft | 465 kts | 136° |
| 2026-04-24 11:16 | 15.94524 | 75.35258 | 36845 ft | 467 kts | 136° |
| 2026-04-24 11:17 | 15.90466 | 75.40533 | 36828 ft | 468 kts | 136° |
| 2026-04-24 11:17 | 15.86399 | 75.45815 | 36824 ft | 468 kts | 136° |
| 2026-04-24 11:18 | 15.82328 | 75.51100 | 36823 ft | 468 kts | 135° |
| 2026-04-24 11:18 | 15.78256 | 75.56382 | 36822 ft | 469 kts | 135° |
| 2026-04-24 11:19 | 15.74210 | 75.61626 | 36817 ft | 468 kts | 135° |
| 2026-04-24 11:19 | 15.70141 | 75.66895 | 36812 ft | 468 kts | 135° |
| 2026-04-24 11:20 | 15.66070 | 75.72164 | 36810 ft | 467 kts | 135° |
| 2026-04-24 11:20 | 15.62007 | 75.77419 | 36808 ft | 467 kts | 135° |
| 2026-04-24 11:21 | 15.57950 | 75.82662 | 36801 ft | 466 kts | 136° |
| 2026-04-24 11:21 | 15.53892 | 75.87903 | 36809 ft | 465 kts | 136° |
| 2026-04-24 11:22 | 15.49841 | 75.93131 | 36799 ft | 465 kts | 136° |
| 2026-04-24 11:22 | 15.45786 | 75.98360 | 36792 ft | 465 kts | 136° |
| 2026-04-24 11:23 | 15.41786 | 76.03514 | 36795 ft | 466 kts | 136° |
| 2026-04-24 11:23 | 15.37722 | 76.08748 | 36789 ft | 467 kts | 136° |
| 2026-04-24 11:24 | 15.33672 | 76.13960 | 36796 ft | 468 kts | 136° |
| 2026-04-24 11:24 | 15.29589 | 76.19212 | 36800 ft | 468 kts | 135° |
| 2026-04-24 11:25 | 15.25504 | 76.24463 | 36801 ft | 469 kts | 135° |
| 2026-04-24 11:25 | 15.21407 | 76.29726 | 36794 ft | 469 kts | 135° |
| 2026-04-24 11:26 | 15.17314 | 76.34981 | 36808 ft | 469 kts | 135° |
| 2026-04-24 11:26 | 15.13220 | 76.40232 | 36809 ft | 469 kts | 135° |
| 2026-04-24 11:27 | 15.09126 | 76.45479 | 36810 ft | 469 kts | 135° |
| 2026-04-24 11:27 | 15.05028 | 76.50729 | 36806 ft | 469 kts | 136° |
| 2026-04-24 11:28 | 15.00928 | 76.55981 | 36813 ft | 469 kts | 135° |
| 2026-04-24 11:28 | 14.96838 | 76.61215 | 36813 ft | 468 kts | 136° |
| 2026-04-24 11:29 | 14.92746 | 76.66449 | 36815 ft | 468 kts | 136° |
| 2026-04-24 11:29 | 14.88660 | 76.71672 | 36814 ft | 467 kts | 136° |
| 2026-04-24 11:30 | 14.84577 | 76.76887 | 36821 ft | 466 kts | 136° |
| 2026-04-24 11:30 | 14.80499 | 76.82092 | 36815 ft | 466 kts | 136° |
| 2026-04-24 11:31 | 14.76450 | 76.87256 | 36807 ft | 465 kts | 136° |
| 2026-04-24 11:31 | 14.72379 | 76.92445 | 36820 ft | 465 kts | 136° |
| 2026-04-24 11:32 | 14.68308 | 76.97632 | 36813 ft | 465 kts | 136° |
| 2026-04-24 11:32 | 14.64302 | 77.02734 | 36819 ft | 465 kts | 136° |
| 2026-04-24 11:33 | 14.60219 | 77.07928 | 36817 ft | 465 kts | 135° |
| 2026-04-24 11:33 | 14.56602 | 77.13552 | 36824 ft | 473 kts | 127° |
| 2026-04-24 11:34 | 14.50103 | 77.25050 | 36816 ft | 474 kts | 127° |
| 2026-04-24 11:35 | 14.46753 | 77.30909 | 36824 ft | 474 kts | 127° |
| 2026-04-24 11:35 | 14.43382 | 77.36763 | 36829 ft | 474 kts | 127° |
| 2026-04-24 11:36 | 14.40006 | 77.42613 | 36825 ft | 475 kts | 127° |
| 2026-04-24 11:36 | 14.36630 | 77.48462 | 36832 ft | 474 kts | 127° |
| 2026-04-24 11:37 | 14.33250 | 77.54315 | 36821 ft | 475 kts | 127° |
| 2026-04-24 11:37 | 14.29870 | 77.60165 | 36826 ft | 474 kts | 127° |
| 2026-04-24 11:38 | 14.26492 | 77.66007 | 36841 ft | 474 kts | 127° |
| 2026-04-24 11:38 | 14.23116 | 77.71843 | 36835 ft | 474 kts | 127° |
| 2026-04-24 11:39 | 14.19759 | 77.77644 | 36814 ft | 466 kts | 127° |
| 2026-04-24 11:39 | 14.16472 | 77.83327 | 36845 ft | 459 kts | 128° |
| 2026-04-24 11:40 | 14.13188 | 77.88982 | 36849 ft | 462 kts | 128° |
| 2026-04-24 11:40 | 14.09877 | 77.94679 | 36858 ft | 464 kts | 128° |
| 2026-04-24 11:41 | 14.06950 | 77.99717 | 36853 ft | 466 kts | 128° |
| 2026-04-24 11:41 | 14.03686 | 78.05336 | 36851 ft | 467 kts | 128° |
| 2026-04-24 11:42 | 14.00355 | 78.11066 | 36835 ft | 466 kts | 127° |
| 2026-04-24 11:42 | 13.97031 | 78.16781 | 36832 ft | 465 kts | 128° |
| 2026-04-24 11:43 | 13.93714 | 78.22479 | 36836 ft | 464 kts | 128° |
| 2026-04-24 11:43 | 13.90402 | 78.28165 | 36832 ft | 462 kts | 128° |
| 2026-04-24 11:44 | 13.87094 | 78.33838 | 36830 ft | 461 kts | 128° |
| 2026-04-24 11:44 | 13.83797 | 78.39490 | 36845 ft | 460 kts | 128° |
| 2026-04-24 11:45 | 13.80506 | 78.45126 | 36827 ft | 459 kts | 128° |
| 2026-04-24 11:45 | 13.77219 | 78.50752 | 36845 ft | 460 kts | 128° |
| 2026-04-24 11:46 | 13.75551 | 78.53598 | 36291 ft | 468 kts | 128° |
| 2026-04-24 11:46 | 13.73874 | 78.56464 | 35777 ft | 465 kts | 128° |
| 2026-04-24 11:46 | 13.72212 | 78.59309 | 35260 ft | 463 kts | 128° |
| 2026-04-24 11:46 | 13.70558 | 78.62141 | 34758 ft | 462 kts | 128° |
| 2026-04-24 11:47 | 13.68904 | 78.64970 | 34260 ft | 460 kts | 128° |
| 2026-04-24 11:47 | 13.67257 | 78.67784 | 33760 ft | 459 kts | 128° |
| 2026-04-24 11:47 | 13.65615 | 78.70590 | 33190 ft | 457 kts | 128° |
| 2026-04-24 11:47 | 13.63977 | 78.73385 | 32647 ft | 456 kts | 128° |
| 2026-04-24 11:48 | 13.62345 | 78.76169 | 32107 ft | 454 kts | 127° |
| 2026-04-24 11:48 | 13.60715 | 78.78947 | 31581 ft | 453 kts | 127° |
| 2026-04-24 11:48 | 13.59093 | 78.81713 | 31064 ft | 451 kts | 127° |
| 2026-04-24 11:48 | 13.57474 | 78.84472 | 30547 ft | 450 kts | 127° |
| 2026-04-24 11:49 | 13.55862 | 78.87219 | 30046 ft | 448 kts | 127° |
| 2026-04-24 11:49 | 13.54251 | 78.89964 | 29484 ft | 447 kts | 126° |
| 2026-04-24 11:49 | 13.52650 | 78.92690 | 28921 ft | 445 kts | 126° |
| 2026-04-24 11:49 | 13.51054 | 78.95407 | 28352 ft | 442 kts | 126° |
| 2026-04-24 11:50 | 13.49467 | 78.98108 | 27796 ft | 439 kts | 125° |
| 2026-04-24 11:50 | 13.47945 | 79.00698 | 27270 ft | 437 kts | 125° |
| 2026-04-24 11:50 | 13.46380 | 79.03365 | 26727 ft | 435 kts | 123° |
| 2026-04-24 11:50 | 13.45295 | 79.06273 | 26156 ft | 441 kts | 101° |
| 2026-04-24 11:51 | 13.45242 | 79.09415 | 25692 ft | 441 kts | 86° |
| 2026-04-24 11:51 | 13.45666 | 79.12485 | 25206 ft | 440 kts | 81° |
| 2026-04-24 11:51 | 13.46275 | 79.15530 | 24963 ft | 430 kts | 79° |
| 2026-04-24 11:51 | 13.46938 | 79.18479 | 24845 ft | 417 kts | 78° |
| 2026-04-24 11:52 | 13.47604 | 79.21320 | 24826 ft | 402 kts | 78° |
| 2026-04-24 11:52 | 13.48259 | 79.24065 | 24804 ft | 388 kts | 78° |
| 2026-04-24 11:52 | 13.48895 | 79.26719 | 24802 ft | 379 kts | 78° |
| 2026-04-24 11:52 | 13.49525 | 79.29349 | 24797 ft | 381 kts | 78° |
| 2026-04-24 11:53 | 13.50161 | 79.32008 | 24806 ft | 385 kts | 78° |
| 2026-04-24 11:53 | 13.50806 | 79.34708 | 24450 ft | 393 kts | 78° |
| 2026-04-24 11:53 | 13.51459 | 79.37449 | 23899 ft | 397 kts | 78° |
| 2026-04-24 11:53 | 13.52037 | 79.40227 | 23350 ft | 398 kts | 82° |
| 2026-04-24 11:54 | 13.52386 | 79.43050 | 22696 ft | 398 kts | 89° |
| 2026-04-24 11:54 | 13.52293 | 79.45876 | 22069 ft | 396 kts | 101° |
| 2026-04-24 11:54 | 13.51626 | 79.48609 | 21455 ft | 394 kts | 111° |
| 2026-04-24 11:54 | 13.50923 | 79.50372 | 21050 ft | 393 kts | 116° |
| 2026-04-24 11:55 | 13.49664 | 79.52859 | 20455 ft | 392 kts | 121° |
| 2026-04-24 11:55 | 13.48277 | 79.55253 | 20026 ft | 387 kts | 122° |
| 2026-04-24 11:55 | 13.46865 | 79.57592 | 19666 ft | 382 kts | 123° |
| 2026-04-24 11:55 | 13.45489 | 79.59874 | 19540 ft | 369 kts | 122° |
| 2026-04-24 11:56 | 13.44172 | 79.62085 | 19444 ft | 357 kts | 122° |
| 2026-04-24 11:56 | 13.42904 | 79.64229 | 19366 ft | 345 kts | 122° |
| 2026-04-24 11:56 | 13.41685 | 79.66309 | 19185 ft | 337 kts | 122° |
| 2026-04-24 11:56 | 13.40506 | 79.68345 | 18826 ft | 336 kts | 121° |
| 2026-04-24 11:57 | 13.39315 | 79.70408 | 18499 ft | 334 kts | 122° |
| 2026-04-24 11:57 | 13.38138 | 79.72447 | 18185 ft | 332 kts | 121° |
| 2026-04-24 11:57 | 13.36967 | 79.74474 | 17868 ft | 328 kts | 121° |
| 2026-04-24 11:57 | 13.35809 | 79.76477 | 17538 ft | 325 kts | 121° |
| 2026-04-24 11:58 | 13.34660 | 79.78464 | 17207 ft | 323 kts | 121° |
| 2026-04-24 11:58 | 13.33509 | 79.80451 | 16805 ft | 323 kts | 120° |
| 2026-04-24 11:58 | 13.32369 | 79.82420 | 16423 ft | 322 kts | 120° |
| 2026-04-24 11:58 | 13.31231 | 79.84385 | 16203 ft | 316 kts | 119° |
| 2026-04-24 11:59 | 13.30109 | 79.86323 | 15835 ft | 316 kts | 118° |
| 2026-04-24 11:59 | 13.28989 | 79.88256 | 15464 ft | 316 kts | 118° |
| 2026-04-24 11:59 | 13.27868 | 79.90191 | 15110 ft | 315 kts | 118° |
| 2026-04-24 11:59 | 13.26752 | 79.92115 | 14802 ft | 313 kts | 118° |
| 2026-04-24 12:00 | 13.25644 | 79.94027 | 14482 ft | 311 kts | 118° |
| 2026-04-24 12:00 | 13.24540 | 79.95932 | 14153 ft | 310 kts | 118° |
| 2026-04-24 12:00 | 13.23437 | 79.97834 | 13832 ft | 309 kts | 118° |
| 2026-04-24 12:00 | 13.22342 | 79.99721 | 13616 ft | 304 kts | 117° |
| 2026-04-24 12:01 | 13.21309 | 80.01498 | 13504 ft | 296 kts | 117° |
| 2026-04-24 12:01 | 13.20265 | 80.03296 | 13237 ft | 292 kts | 117° |
| 2026-04-24 12:01 | 13.19155 | 80.05044 | 12894 ft | 295 kts | 129° |
| 2026-04-24 12:01 | 13.17486 | 80.06286 | 12538 ft | 302 kts | 155° |
| 2026-04-24 12:02 | 13.15429 | 80.06708 | 12247 ft | 306 kts | 178° |
| 2026-04-24 12:02 | 13.13314 | 80.06496 | 11988 ft | 305 kts | 185° |
| 2026-04-24 12:02 | 13.11217 | 80.06196 | 11670 ft | 304 kts | 185° |
| 2026-04-24 12:02 | 13.09124 | 80.05905 | 11374 ft | 303 kts | 185° |
| 2026-04-24 12:03 | 13.07070 | 80.05453 | 11076 ft | 305 kts | 201° |
| 2026-04-24 12:03 | 13.05346 | 80.04188 | 10749 ft | 308 kts | 228° |
| 2026-04-24 12:03 | 13.04276 | 80.02328 | 10630 ft | 298 kts | 249° |
| 2026-04-24 12:03 | 13.03548 | 80.00399 | 10574 ft | 283 kts | 250° |
| 2026-04-24 12:04 | 13.02867 | 79.98561 | 10463 ft | 269 kts | 249° |
| 2026-04-24 12:04 | 13.02212 | 79.96814 | 10359 ft | 257 kts | 249° |
| 2026-04-24 12:04 | 13.01581 | 79.95147 | 10235 ft | 246 kts | 249° |
| 2026-04-24 12:04 | 13.00965 | 79.93530 | 9990 ft | 242 kts | 249° |
| 2026-04-24 12:05 | 13.00085 | 79.92083 | 9617 ft | 241 kts | 218° |
| 2026-04-24 12:05 | 12.98645 | 79.91363 | 9261 ft | 232 kts | 184° |
| 2026-04-24 12:05 | 12.97076 | 79.91505 | 8939 ft | 221 kts | 156° |
| 2026-04-24 12:05 | 12.95789 | 79.92262 | 8595 ft | 215 kts | 136° |
| 2026-04-24 12:06 | 12.94674 | 79.93273 | 8267 ft | 213 kts | 133° |
| 2026-04-24 12:06 | 12.93590 | 79.94304 | 7942 ft | 212 kts | 133° |
| 2026-04-24 12:06 | 12.92530 | 79.95335 | 7660 ft | 208 kts | 127° |
| 2026-04-24 12:06 | 12.91914 | 79.96634 | 7311 ft | 203 kts | 98° |
| 2026-04-24 12:07 | 12.91930 | 79.98059 | 6999 ft | 200 kts | 75° |
| 2026-04-24 12:07 | 12.92411 | 79.99405 | 6664 ft | 201 kts | 69° |
| 2026-04-24 12:07 | 12.92923 | 80.00743 | 6357 ft | 201 kts | 69° |
| 2026-04-24 12:07 | 12.93427 | 80.02066 | 6051 ft | 200 kts | 69° |
| 2026-04-24 12:08 | 12.93935 | 80.03402 | 5730 ft | 200 kts | 69° |
| 2026-04-24 12:08 | 12.94438 | 80.04727 | 5431 ft | 199 kts | 70° |
| 2026-04-24 12:08 | 12.94941 | 80.06050 | 5143 ft | 198 kts | 71° |
| 2026-04-24 12:08 | 12.95437 | 80.07362 | 4813 ft | 200 kts | 71° |
| 2026-04-24 12:09 | 12.95940 | 80.08702 | 4496 ft | 201 kts | 71° |
| 2026-04-24 12:09 | 12.96444 | 80.10044 | 4139 ft | 202 kts | 72° |
| 2026-04-24 12:09 | 12.96945 | 80.11377 | 3892 ft | 200 kts | 72° |
| 2026-04-24 12:09 | 12.97443 | 80.12704 | 3599 ft | 200 kts | 71° |
| 2026-04-24 12:10 | 12.97938 | 80.14024 | 3280 ft | 199 kts | 71° |
| 2026-04-24 12:10 | 12.98445 | 80.15376 | 3010 ft | 200 kts | 72° |
| 2026-04-24 12:10 | 12.98654 | 80.16744 | 2982 ft | 192 kts | 103° |
| 2026-04-24 12:11 | 12.97150 | 80.18881 | 3010 ft | 195 kts | 138° |
| 2026-04-24 12:11 | 12.96167 | 80.19838 | 3002 ft | 195 kts | 138° |
| 2026-04-24 12:11 | 12.95188 | 80.20787 | 2986 ft | 192 kts | 139° |
| 2026-04-24 12:11 | 12.94217 | 80.21717 | 3005 ft | 190 kts | 139° |
| 2026-04-24 12:12 | 12.93254 | 80.22630 | 3212 ft | 189 kts | 139° |
| 2026-04-24 12:12 | 12.92238 | 80.23583 | 3439 ft | 207 kts | 138° |
| 2026-04-24 12:12 | 12.91142 | 80.24578 | 3624 ft | 211 kts | 144° |
| 2026-04-24 12:12 | 12.89791 | 80.25079 | 3799 ft | 209 kts | 178° |
| 2026-04-24 12:13 | 12.88401 | 80.24671 | 3961 ft | 216 kts | 212° |
| 2026-04-24 12:13 | 12.87385 | 80.23493 | 4010 ft | 227 kts | 236° |
| 2026-04-24 12:13 | 12.86621 | 80.22081 | 3991 ft | 225 kts | 238° |
| 2026-04-24 12:13 | 12.85883 | 80.20680 | 3991 ft | 223 kts | 239° |
| 2026-04-24 12:14 | 12.85144 | 80.19285 | 3992 ft | 222 kts | 239° |
| 2026-04-24 12:14 | 12.84409 | 80.17890 | 3992 ft | 222 kts | 239° |
| 2026-04-24 12:14 | 12.83676 | 80.16500 | 3996 ft | 222 kts | 240° |
| 2026-04-24 12:14 | 12.82931 | 80.15118 | 3997 ft | 221 kts | 239° |
| 2026-04-24 12:15 | 12.82228 | 80.13719 | 3991 ft | 222 kts | 249° |
| 2026-04-24 12:15 | 12.82133 | 80.12149 | 4001 ft | 226 kts | 283° |
| 2026-04-24 12:15 | 12.82770 | 80.10627 | 3777 ft | 238 kts | 297° |
| 2026-04-24 12:15 | 12.83572 | 80.09130 | 3476 ft | 239 kts | 298° |
| 2026-04-24 12:16 | 12.84395 | 80.07664 | 3218 ft | 236 kts | 299° |
| 2026-04-24 12:16 | 12.85221 | 80.06214 | 2907 ft | 235 kts | 298° |
| 2026-04-24 12:16 | 12.86047 | 80.04782 | 2626 ft | 232 kts | 298° |
| 2026-04-24 12:16 | 12.86870 | 80.03371 | 2365 ft | 228 kts | 299° |
| 2026-04-24 12:17 | 12.87690 | 80.01995 | 2325 ft | 225 kts | 306° |
| 2026-04-24 12:17 | 12.88909 | 80.01042 | 2300 ft | 219 kts | 342° |
| 2026-04-24 12:17 | 12.90329 | 80.00957 | 2274 ft | 202 kts | 20° |
| 2026-04-24 12:17 | 12.91517 | 80.01617 | 2303 ft | 193 kts | 37° |
| 2026-04-24 12:18 | 12.92601 | 80.02413 | 2282 ft | 194 kts | 39° |
| 2026-04-24 12:18 | 12.93655 | 80.03322 | 2017 ft | 198 kts | 57° |
| 2026-04-24 12:18 | 12.94264 | 80.04551 | 1849 ft | 188 kts | 68° |
| 2026-04-24 12:18 | 12.94798 | 80.05722 | 1788 ft | 174 kts | 72° |
| 2026-04-24 12:19 | 12.95235 | 80.06821 | 1778 ft | 161 kts | 75° |
| 2026-04-24 12:19 | 12.95645 | 80.07912 | 1601 ft | 166 kts | 73° |
| 2026-04-24 12:19 | 12.96062 | 80.09021 | 1382 ft | 166 kts | 74° |
| 2026-04-24 12:19 | 12.96462 | 80.10091 | 1204 ft | 155 kts | 73° |
| 2026-04-24 12:20 | 12.96840 | 80.11097 | 960 ft | 147 kts | 74° |
| 2026-04-24 12:20 | 12.97184 | 80.12014 | 792 ft | 136 kts | 76° |
| 2026-04-24 12:20 | 12.97520 | 80.12911 | 576 ft | 136 kts | 76° |
| 2026-04-24 12:20 | 12.97857 | 80.13817 | 466 ft | 141 kts | 75° |
| 2026-04-24 12:21 | 12.98215 | 80.14769 | 200 ft | 143 kts | 73° |
| 2026-04-24 12:21 | 12.98579 | 80.15693 | 64 ft | 138 kts | 73° |
| 2026-04-24 12:21 | 12.98874 | 80.16518 | 55 ft | 97 kts | 69° |
| 2026-04-24 12:21 | 12.99046 | 80.16978 | 53 ft | 45 kts | 69° |
| 2026-04-24 12:22 | 12.99097 | 80.17114 | 49 ft | 6 kts | 69° |
| 2026-04-24 12:22 | 12.99112 | 80.17164 | 52 ft | 8 kts | 87° |
| 2026-04-24 12:22 | 12.99079 | 80.17203 | 52 ft | 8 kts | 154° |
| 2026-04-24 12:22 | 12.99029 | 80.17223 | 53 ft | 7 kts | 159° |
| 2026-04-24 12:23 | 12.98981 | 80.17239 | 53 ft | 7 kts | 169° |
| 2026-04-24 12:23 | 12.98938 | 80.17217 | 51 ft | 8 kts | 234° |
| 2026-04-24 12:23 | 12.98908 | 80.17165 | 53 ft | 9 kts | 252° |
| 2026-04-24 12:23 | 12.98892 | 80.17095 | 54 ft | 11 kts | 251° |
| 2026-04-24 12:24 | 12.98863 | 80.17017 | 53 ft | 12 kts | 248° |
| 2026-04-24 12:24 | 12.98829 | 80.16930 | 50 ft | 14 kts | 249° |
| 2026-04-24 12:24 | 12.98793 | 80.16834 | 52 ft | 15 kts | 249° |
| 2026-04-24 12:24 | 12.98772 | 80.16778 | 52 ft | 8 kts | 249° |
| 2026-04-24 12:25 | 12.98749 | 80.16717 | 51 ft | 10 kts | 249° |
| 2026-04-24 12:25 | 12.98721 | 80.16643 | 53 ft | 12 kts | 248° |
| 2026-04-24 12:25 | 12.98689 | 80.16557 | 54 ft | 14 kts | 250° |
| 2026-04-24 12:25 | 12.98652 | 80.16462 | 50 ft | 15 kts | 247° |
| 2026-04-24 12:26 | 12.98613 | 80.16356 | 51 ft | 17 kts | 250° |
| 2026-04-24 12:26 | 12.98589 | 80.16292 | 50 ft | 9 kts | 248° |
| 2026-04-24 12:26 | 12.98569 | 80.16242 | 50 ft | 7 kts | 248° |
| 2026-04-24 12:26 | 12.98548 | 80.16188 | 53 ft | 9 kts | 248° |
| 2026-04-24 12:27 | 12.98520 | 80.16135 | 54 ft | 4 kts | 214° |
| 2026-04-24 12:27 | 12.98488 | 80.16137 | 48 ft | 5 kts | 159° |
| 2026-04-24 12:27 | 12.98450 | 80.16152 | 50 ft | 7 kts | 159° |
| 2026-04-24 12:27 | 12.98426 | 80.16160 | 53 ft | 0 kts | 161° |
| 2026-04-24 12:28 | 12.98419 | 80.16163 | 53 ft | 2 kts | 161° |
| 2026-04-24 12:28 | 12.98401 | 80.16172 | 50 ft | 4 kts | 143° |
| 2026-04-24 12:28 | 12.98387 | 80.16207 | 52 ft | 8 kts | 87° |
| 2026-04-24 12:28 | 12.98413 | 80.16279 | 53 ft | 14 kts | 69° |
| 2026-04-24 12:29 | 12.98444 | 80.16366 | 54 ft | 11 kts | 70° |
| 2026-04-24 12:29 | 12.98479 | 80.16460 | 50 ft | 12 kts | 69° |
| 2026-04-24 12:29 | 12.98507 | 80.16539 | 49 ft | 3 kts | 70° |
| 2026-04-24 12:29 | 12.98505 | 80.16580 | 54 ft | 8 kts | 133° |
| 2026-04-24 12:30 | 12.98469 | 80.16599 | 53 ft | 4 kts | 157° |
| 2026-04-24 12:30 | 12.98464 | 80.16601 | 54 ft | 0 kts | 157° |